sensor_id;sensor_type;location;lat;lon;timestamp;temperature;humidity
4054;DHT22;2042;47.956;9.222;2023-04-25T00:00:22;5.90;6.40
4054;DHT22;2042;47.956;9.222;2023-04-25T00:02:48;5.90;6.80
4054;DHT22;2042;47.956;9.222;2023-04-25T00:05:14;5.90;6.60
4054;DHT22;2042;47.956;9.222;2023-04-25T00:07:42;5.90;6.10
4054;DHT22;2042;47.956;9.222;2023-04-25T00:10:09;5.90;6.20
4054;DHT22;2042;47.956;9.222;2023-04-25T00:12:36;5.90;6.90
4054;DHT22;2042;47.956;9.222;2023-04-25T00:15:02;5.80;4.00
4054;DHT22;2042;47.956;9.222;2023-04-25T00:17:28;5.30;2.90
4054;DHT22;2042;47.956;9.222;2023-04-25T00:19:54;4.90;6.70
4054;DHT22;2042;47.956;9.222;2023-04-25T00:22:20;4.60;10.60
4054;DHT22;2042;47.956;9.222;2023-04-25T00:24:46;4.50;13.30
4054;DHT22;2042;47.956;9.222;2023-04-25T00:27:11;4.50;15.60
4054;DHT22;2042;47.956;9.222;2023-04-25T00:29:37;4.40;17.40
4054;DHT22;2042;47.956;9.222;2023-04-25T00:32:03;4.40;17.90
4054;DHT22;2042;47.956;9.222;2023-04-25T00:34:28;4.40;18.80
4054;DHT22;2042;47.956;9.222;2023-04-25T00:36:54;4.40;19.40
4054;DHT22;2042;47.956;9.222;2023-04-25T00:39:20;4.40;19.90
4054;DHT22;2042;47.956;9.222;2023-04-25T00:41:45;4.40;20.50
4054;DHT22;2042;47.956;9.222;2023-04-25T00:44:12;4.30;21.10
4054;DHT22;2042;47.956;9.222;2023-04-25T00:46:39;4.30;22.40
4054;DHT22;2042;47.956;9.222;2023-04-25T00:49:05;4.30;23.30
4054;DHT22;2042;47.956;9.222;2023-04-25T00:51:31;4.30;23.70
4054;DHT22;2042;47.956;9.222;2023-04-25T00:53:58;4.30;23.90
4054;DHT22;2042;47.956;9.222;2023-04-25T00:56:25;4.30;24.30
4054;DHT22;2042;47.956;9.222;2023-04-25T00:58:53;4.30;24.30
4054;DHT22;2042;47.956;9.222;2023-04-25T01:01:21;4.20;24.00
4054;DHT22;2042;47.956;9.222;2023-04-25T01:03:47;4.20;24.30
4054;DHT22;2042;47.956;9.222;2023-04-25T01:06:16;4.10;24.60
4054;DHT22;2042;47.956;9.222;2023-04-25T01:08:41;4.00;25.50
4054;DHT22;2042;47.956;9.222;2023-04-25T01:11:07;4.00;26.00
4054;DHT22;2042;47.956;9.222;2023-04-25T01:13:33;4.00;26.80
4054;DHT22;2042;47.956;9.222;2023-04-25T01:15:59;4.00;27.30
4054;DHT22;2042;47.956;9.222;2023-04-25T01:18:25;4.00;27.80
4054;DHT22;2042;47.956;9.222;2023-04-25T01:20:52;4.00;28.30
4054;DHT22;2042;47.956;9.222;2023-04-25T01:23:22;4.10;29.00
4054;DHT22;2042;47.956;9.222;2023-04-25T01:25:48;4.10;29.40
4054;DHT22;2042;47.956;9.222;2023-04-25T01:28:14;4.20;29.10
4054;DHT22;2042;47.956;9.222;2023-04-25T01:30:41;4.20;28.60
4054;DHT22;2042;47.956;9.222;2023-04-25T01:33:08;4.20;28.00
4054;DHT22;2042;47.956;9.222;2023-04-25T01:35:34;4.10;27.60
4054;DHT22;2042;47.956;9.222;2023-04-25T01:38:01;4.10;27.70
4054;DHT22;2042;47.956;9.222;2023-04-25T01:40:27;4.10;28.00
4054;DHT22;2042;47.956;9.222;2023-04-25T01:42:53;4.10;28.10
4054;DHT22;2042;47.956;9.222;2023-04-25T01:45:19;4.10;28.50
4054;DHT22;2042;47.956;9.222;2023-04-25T01:47:45;4.10;29.00
4054;DHT22;2042;47.956;9.222;2023-04-25T01:50:15;4.00;29.20
4054;DHT22;2042;47.956;9.222;2023-04-25T01:52:41;4.10;29.80
4054;DHT22;2042;47.956;9.222;2023-04-25T01:55:07;4.10;30.50
4054;DHT22;2042;47.956;9.222;2023-04-25T01:57:33;4.10;31.10
4054;DHT22;2042;47.956;9.222;2023-04-25T02:00:00;4.10;31.70
4054;DHT22;2042;47.956;9.222;2023-04-25T02:02:26;4.10;32.90
4054;DHT22;2042;47.956;9.222;2023-04-25T02:04:52;4.10;33.10
4054;DHT22;2042;47.956;9.222;2023-04-25T02:07:19;4.10;33.70
4054;DHT22;2042;47.956;9.222;2023-04-25T02:09:45;4.20;35.00
4054;DHT22;2042;47.956;9.222;2023-04-25T02:12:11;4.20;35.90
4054;DHT22;2042;47.956;9.222;2023-04-25T02:14:36;4.30;36.00
4054;DHT22;2042;47.956;9.222;2023-04-25T02:17:02;4.40;34.60
4054;DHT22;2042;47.956;9.222;2023-04-25T02:19:28;4.30;33.10
4054;DHT22;2042;47.956;9.222;2023-04-25T02:21:53;4.30;32.10
4054;DHT22;2042;47.956;9.222;2023-04-25T02:24:19;4.20;31.80
4054;DHT22;2042;47.956;9.222;2023-04-25T02:26:45;4.10;31.60
4054;DHT22;2042;47.956;9.222;2023-04-25T02:29:12;4.10;31.70
4054;DHT22;2042;47.956;9.222;2023-04-25T02:31:37;4.00;31.30
4054;DHT22;2042;47.956;9.222;2023-04-25T02:34:03;4.00;30.90
4054;DHT22;2042;47.956;9.222;2023-04-25T02:36:29;3.90;30.30
4054;DHT22;2042;47.956;9.222;2023-04-25T02:38:57;3.80;30.00
4054;DHT22;2042;47.956;9.222;2023-04-25T02:41:23;3.80;30.40
4054;DHT22;2042;47.956;9.222;2023-04-25T02:43:48;3.70;30.50
4054;DHT22;2042;47.956;9.222;2023-04-25T02:46:14;3.60;30.10
4054;DHT22;2042;47.956;9.222;2023-04-25T02:48:40;3.50;29.40
4054;DHT22;2042;47.956;9.222;2023-04-25T02:51:05;3.40;29.40
4054;DHT22;2042;47.956;9.222;2023-04-25T02:53:31;3.40;30.00
4054;DHT22;2042;47.956;9.222;2023-04-25T02:55:57;3.30;30.00
4054;DHT22;2042;47.956;9.222;2023-04-25T02:58:24;3.20;30.10
4054;DHT22;2042;47.956;9.222;2023-04-25T03:00:50;3.10;30.00
4054;DHT22;2042;47.956;9.222;2023-04-25T03:03:16;3.00;30.00
4054;DHT22;2042;47.956;9.222;2023-04-25T03:05:43;3.00;30.00
4054;DHT22;2042;47.956;9.222;2023-04-25T03:34:57;2.70;8.00
4054;DHT22;2042;47.956;9.222;2023-04-25T03:37:23;2.70;9.30
4054;DHT22;2042;47.956;9.222;2023-04-25T03:39:49;2.60;10.50
4054;DHT22;2042;47.956;9.222;2023-04-25T03:42:14;2.60;10.90
4054;DHT22;2042;47.956;9.222;2023-04-25T03:44:40;2.50;10.80
4054;DHT22;2042;47.956;9.222;2023-04-25T03:47:05;2.50;11.10
4054;DHT22;2042;47.956;9.222;2023-04-25T03:49:33;2.50;11.70
4054;DHT22;2042;47.956;9.222;2023-04-25T03:51:59;2.40;12.00
4054;DHT22;2042;47.956;9.222;2023-04-25T03:54:25;2.40;12.50
4054;DHT22;2042;47.956;9.222;2023-04-25T03:56:51;2.50;12.70
4054;DHT22;2042;47.956;9.222;2023-04-25T03:59:17;2.40;12.00
4054;DHT22;2042;47.956;9.222;2023-04-25T04:01:42;2.30;15.00
4054;DHT22;2042;47.956;9.222;2023-04-25T04:04:08;2.10;11.20
4054;DHT22;2042;47.956;9.222;2023-04-25T04:06:34;2.10;15.00
4054;DHT22;2042;47.956;9.222;2023-04-25T04:09:00;2.30;17.50
4054;DHT22;2042;47.956;9.222;2023-04-25T04:11:25;2.50;18.70
4054;DHT22;2042;47.956;9.222;2023-04-25T04:13:51;2.60;18.70
4054;DHT22;2042;47.956;9.222;2023-04-25T04:16:17;2.60;17.80
4054;DHT22;2042;47.956;9.222;2023-04-25T04:18:42;2.60;16.30
4054;DHT22;2042;47.956;9.222;2023-04-25T04:21:08;2.40;14.00
4054;DHT22;2042;47.956;9.222;2023-04-25T04:23:34;2.20;12.60
4054;DHT22;2042;47.956;9.222;2023-04-25T04:26:00;2.10;12.90
4054;DHT22;2042;47.956;9.222;2023-04-25T04:28:26;2.00;13.30
4054;DHT22;2042;47.956;9.222;2023-04-25T04:30:52;1.90;14.60
4054;DHT22;2042;47.956;9.222;2023-04-25T04:33:17;1.90;14.90
4054;DHT22;2042;47.956;9.222;2023-04-25T04:35:49;1.90;15.50
4054;DHT22;2042;47.956;9.222;2023-04-25T04:38:17;1.90;15.70
4054;DHT22;2042;47.956;9.222;2023-04-25T04:40:44;1.90;16.30
4054;DHT22;2042;47.956;9.222;2023-04-25T04:43:09;2.00;17.00
4054;DHT22;2042;47.956;9.222;2023-04-25T04:45:36;2.10;18.10
4054;DHT22;2042;47.956;9.222;2023-04-25T04:48:05;2.20;19.30
4054;DHT22;2042;47.956;9.222;2023-04-25T04:50:31;2.40;19.80
4054;DHT22;2042;47.956;9.222;2023-04-25T04:52:58;2.50;20.00
4054;DHT22;2042;47.956;9.222;2023-04-25T04:55:23;2.70;21.00
4054;DHT22;2042;47.956;9.222;2023-04-25T04:57:49;2.90;21.80
4054;DHT22;2042;47.956;9.222;2023-04-25T05:00:15;3.10;22.50
4054;DHT22;2042;47.956;9.222;2023-04-25T05:02:41;3.40;23.60
4054;DHT22;2042;47.956;9.222;2023-04-25T05:05:07;3.70;24.90
4054;DHT22;2042;47.956;9.222;2023-04-25T05:07:33;4.10;25.90
4054;DHT22;2042;47.956;9.222;2023-04-25T05:09:59;4.50;25.60
4054;DHT22;2042;47.956;9.222;2023-04-25T05:12:24;4.80;24.90
4054;DHT22;2042;47.956;9.222;2023-04-25T05:14:50;5.20;25.40
4054;DHT22;2042;47.956;9.222;2023-04-25T05:17:16;5.50;25.30
4054;DHT22;2042;47.956;9.222;2023-04-25T05:19:41;5.70;24.30
4054;DHT22;2042;47.956;9.222;2023-04-25T05:22:07;5.60;21.90
4054;DHT22;2042;47.956;9.222;2023-04-25T05:24:33;5.50;20.30
4054;DHT22;2042;47.956;9.222;2023-04-25T05:26:58;5.50;19.90
4054;DHT22;2042;47.956;9.222;2023-04-25T05:29:24;5.40;20.20
4054;DHT22;2042;47.956;9.222;2023-04-25T05:31:50;5.50;20.80
4054;DHT22;2042;47.956;9.222;2023-04-25T05:34:15;5.50;21.10
4054;DHT22;2042;47.956;9.222;2023-04-25T05:36:42;5.50;21.00
4054;DHT22;2042;47.956;9.222;2023-04-25T05:39:07;5.50;20.60
4054;DHT22;2042;47.956;9.222;2023-04-25T05:41:34;5.50;20.30
4054;DHT22;2042;47.956;9.222;2023-04-25T05:43:59;5.50;19.60
4054;DHT22;2042;47.956;9.222;2023-04-25T05:46:25;5.50;20.60
4054;DHT22;2042;47.956;9.222;2023-04-25T05:48:51;5.60;21.80
4054;DHT22;2042;47.956;9.222;2023-04-25T05:51:16;5.70;22.40
4054;DHT22;2042;47.956;9.222;2023-04-25T05:53:43;6.10;25.80
4054;DHT22;2042;47.956;9.222;2023-04-25T05:58:36;7.40;63.10
4054;DHT22;2042;47.956;9.222;2023-04-25T06:01:02;8.20;50.00
4054;DHT22;2042;47.956;9.222;2023-04-25T06:03:28;8.90;55.30
4054;DHT22;2042;47.956;9.222;2023-04-25T06:05:53;9.50;44.90
4054;DHT22;2042;47.956;9.222;2023-04-25T06:08:19;9.80;35.90
4054;DHT22;2042;47.956;9.222;2023-04-25T06:10:45;10.20;36.20
4054;DHT22;2042;47.956;9.222;2023-04-25T06:13:10;10.40;25.00
4054;DHT22;2042;47.956;9.222;2023-04-25T06:15:36;10.50;17.00
4054;DHT22;2042;47.956;9.222;2023-04-25T06:18:02;10.60;14.40
4054;DHT22;2042;47.956;9.222;2023-04-25T06:20:28;10.60;6.70
4054;DHT22;2042;47.956;9.222;2023-04-25T06:25:19;11.60;9.00
4054;DHT22;2042;47.956;9.222;2023-04-25T06:39:58;11.60;1.00
4054;DHT22;2042;47.956;9.222;2023-04-25T06:42:24;11.70;1.00
4054;DHT22;2042;47.956;9.222;2023-04-25T06:44:50;11.50;1.00
4054;DHT22;2042;47.956;9.222;2023-04-25T06:47:15;11.60;1.00
4054;DHT22;2042;47.956;9.222;2023-04-25T06:49:41;11.50;1.00
4054;DHT22;2042;47.956;9.222;2023-04-25T06:52:07;11.40;1.00
4054;DHT22;2042;47.956;9.222;2023-04-25T06:54:33;11.50;1.00
4054;DHT22;2042;47.956;9.222;2023-04-25T06:56:59;11.60;1.00
4054;DHT22;2042;47.956;9.222;2023-04-25T06:59:26;11.60;1.00
4054;DHT22;2042;47.956;9.222;2023-04-25T07:01:51;11.30;1.00
4054;DHT22;2042;47.956;9.222;2023-04-25T07:04:17;10.90;1.00
4054;DHT22;2042;47.956;9.222;2023-04-25T07:06:43;10.70;1.00
4054;DHT22;2042;47.956;9.222;2023-04-25T07:09:09;10.60;1.00
4054;DHT22;2042;47.956;9.222;2023-04-25T07:11:38;10.50;1.00
4054;DHT22;2042;47.956;9.222;2023-04-25T07:14:03;10.40;1.00
4054;DHT22;2042;47.956;9.222;2023-04-25T07:16:29;10.30;1.00
4054;DHT22;2042;47.956;9.222;2023-04-25T07:18:55;10.10;1.00
4054;DHT22;2042;47.956;9.222;2023-04-25T07:21:21;9.80;1.00
4054;DHT22;2042;47.956;9.222;2023-04-25T07:23:46;9.70;1.00
4054;DHT22;2042;47.956;9.222;2023-04-25T07:26:12;9.60;1.00
4054;DHT22;2042;47.956;9.222;2023-04-25T07:28:38;9.40;1.00
4054;DHT22;2042;47.956;9.222;2023-04-25T07:31:04;9.30;1.00
4054;DHT22;2042;47.956;9.222;2023-04-25T07:33:30;9.20;1.00
4054;DHT22;2042;47.956;9.222;2023-04-25T07:48:09;7.60;1.00
4054;DHT22;2042;47.956;9.222;2023-04-25T07:50:35;7.20;1.00
4054;DHT22;2042;47.956;9.222;2023-04-25T07:55:27;6.60;1.00
4054;DHT22;2042;47.956;9.222;2023-04-25T07:57:53;6.50;1.00
4054;DHT22;2042;47.956;9.222;2023-04-25T08:00:19;6.40;1.00
4054;DHT22;2042;47.956;9.222;2023-04-25T08:02:45;6.20;1.00
4054;DHT22;2042;47.956;9.222;2023-04-25T08:05:11;6.20;1.00
4054;DHT22;2042;47.956;9.222;2023-04-25T08:07:40;6.20;1.00
4054;DHT22;2042;47.956;9.222;2023-04-25T08:10:06;6.10;1.00
4054;DHT22;2042;47.956;9.222;2023-04-25T08:12:33;6.00;1.00
4054;DHT22;2042;47.956;9.222;2023-04-25T08:14:58;5.90;1.00
4054;DHT22;2042;47.956;9.222;2023-04-25T08:17:24;5.70;1.00
4054;DHT22;2042;47.956;9.222;2023-04-25T08:19:50;5.50;1.00
4054;DHT22;2042;47.956;9.222;2023-04-25T08:22:15;5.30;1.00
4054;DHT22;2042;47.956;9.222;2023-04-25T08:24:41;5.00;1.00
4054;DHT22;2042;47.956;9.222;2023-04-25T08:27:07;4.90;1.00
4054;DHT22;2042;47.956;9.222;2023-04-25T08:29:33;4.70;1.00
4054;DHT22;2042;47.956;9.222;2023-04-25T08:32:00;4.50;1.00
4054;DHT22;2042;47.956;9.222;2023-04-25T08:34:26;4.30;1.00
4054;DHT22;2042;47.956;9.222;2023-04-25T08:36:51;4.10;1.00
4054;DHT22;2042;47.956;9.222;2023-04-25T08:39:17;4.10;1.00
4054;DHT22;2042;47.956;9.222;2023-04-25T08:41:43;4.00;1.00
4054;DHT22;2042;47.956;9.222;2023-04-25T08:44:11;3.90;1.00
4054;DHT22;2042;47.956;9.222;2023-04-25T08:46:41;4.00;1.00
4054;DHT22;2042;47.956;9.222;2023-04-25T08:49:07;4.10;1.00
4054;DHT22;2042;47.956;9.222;2023-04-25T08:51:36;4.30;1.00
4054;DHT22;2042;47.956;9.222;2023-04-25T08:54:11;4.30;1.00
4054;DHT22;2042;47.956;9.222;2023-04-25T08:56:47;4.50;1.00
4054;DHT22;2042;47.956;9.222;2023-04-25T08:59:13;4.80;1.00
4054;DHT22;2042;47.956;9.222;2023-04-25T09:01:39;5.20;2.10
4054;DHT22;2042;47.956;9.222;2023-04-25T09:04:05;5.60;2.00
4054;DHT22;2042;47.956;9.222;2023-04-25T09:06:31;5.90;1.00
4054;DHT22;2042;47.956;9.222;2023-04-25T09:09:05;6.00;1.00
4054;DHT22;2042;47.956;9.222;2023-04-25T09:11:32;6.10;1.00
4054;DHT22;2042;47.956;9.222;2023-04-25T09:14:30;6.30;1.00
4054;DHT22;2042;47.956;9.222;2023-04-25T09:19:22;6.60;1.00
4054;DHT22;2042;47.956;9.222;2023-04-25T09:21:54;6.40;1.00
4054;DHT22;2042;47.956;9.222;2023-04-25T09:24:37;6.20;1.00
4054;DHT22;2042;47.956;9.222;2023-04-25T09:27:10;6.00;1.00
4054;DHT22;2042;47.956;9.222;2023-04-25T09:29:38;6.10;1.00
4054;DHT22;2042;47.956;9.222;2023-04-25T09:32:20;6.10;1.00
4054;DHT22;2042;47.956;9.222;2023-04-25T09:34:48;6.10;1.00
4054;DHT22;2042;47.956;9.222;2023-04-25T09:37:29;6.10;1.00
4054;DHT22;2042;47.956;9.222;2023-04-25T09:39:59;6.00;1.00
4054;DHT22;2042;47.956;9.222;2023-04-25T09:42:29;6.00;1.00
4054;DHT22;2042;47.956;9.222;2023-04-25T09:44:57;6.00;1.00
4054;DHT22;2042;47.956;9.222;2023-04-25T09:47:26;5.90;1.00
4054;DHT22;2042;47.956;9.222;2023-04-25T09:49:53;5.80;1.00
4054;DHT22;2042;47.956;9.222;2023-04-25T09:52:24;5.60;1.00
4054;DHT22;2042;47.956;9.222;2023-04-25T09:54:50;5.40;1.00
4054;DHT22;2042;47.956;9.222;2023-04-25T09:57:18;5.40;1.00
4054;DHT22;2042;47.956;9.222;2023-04-25T09:59:46;5.30;1.00
4054;DHT22;2042;47.956;9.222;2023-04-25T10:02:14;5.40;1.00
4054;DHT22;2042;47.956;9.222;2023-04-25T10:04:41;5.50;1.00
4054;DHT22;2042;47.956;9.222;2023-04-25T10:07:08;5.60;1.00
4054;DHT22;2042;47.956;9.222;2023-04-25T10:09:37;5.70;1.00
4054;DHT22;2042;47.956;9.222;2023-04-25T10:12:05;5.80;1.00
4054;DHT22;2042;47.956;9.222;2023-04-25T10:14:31;6.00;1.00
4054;DHT22;2042;47.956;9.222;2023-04-25T10:16:58;6.20;1.00
4054;DHT22;2042;47.956;9.222;2023-04-25T10:19:25;6.40;1.00
4054;DHT22;2042;47.956;9.222;2023-04-25T10:24:23;7.10;1.00
4054;DHT22;2042;47.956;9.222;2023-04-25T10:26:50;7.70;1.00
4054;DHT22;2042;47.956;9.222;2023-04-25T10:29:26;8.90;1.00
4054;DHT22;2042;47.956;9.222;2023-04-25T10:31:52;9.60;1.00
4054;DHT22;2042;47.956;9.222;2023-04-25T10:34:18;10.50;1.00
4054;DHT22;2042;47.956;9.222;2023-04-25T10:36:50;11.30;1.00
4054;DHT22;2042;47.956;9.222;2023-04-25T10:39:23;12.20;1.00
4054;DHT22;2042;47.956;9.222;2023-04-25T10:41:56;12.90;1.00
4054;DHT22;2042;47.956;9.222;2023-04-25T10:44:22;13.10;1.00
4054;DHT22;2042;47.956;9.222;2023-04-25T10:46:47;13.30;1.00
4054;DHT22;2042;47.956;9.222;2023-04-25T10:54:53;12.60;1.00
4054;DHT22;2042;47.956;9.222;2023-04-25T10:57:44;11.70;1.00
4054;DHT22;2042;47.956;9.222;2023-04-25T11:00:19;11.20;1.00
4054;DHT22;2042;47.956;9.222;2023-04-25T11:05:36;10.60;1.00
4054;DHT22;2042;47.956;9.222;2023-04-25T11:08:02;10.90;1.00
4054;DHT22;2042;47.956;9.222;2023-04-25T11:10:32;11.50;1.00
4054;DHT22;2042;47.956;9.222;2023-04-25T11:13:00;12.00;1.00
4054;DHT22;2042;47.956;9.222;2023-04-25T11:15:26;12.20;1.00
4054;DHT22;2042;47.956;9.222;2023-04-25T11:17:53;12.20;1.00
4054;DHT22;2042;47.956;9.222;2023-04-25T11:20:19;12.30;1.00
4054;DHT22;2042;47.956;9.222;2023-04-25T11:22:46;12.20;1.00
4054;DHT22;2042;47.956;9.222;2023-04-25T11:27:59;15.50;1.00
4054;DHT22;2042;47.956;9.222;2023-04-25T11:30:26;15.50;1.00
4054;DHT22;2042;47.956;9.222;2023-04-25T11:32:52;17.40;1.00
4054;DHT22;2042;47.956;9.222;2023-04-25T11:35:21;19.00;1.00
4054;DHT22;2042;47.956;9.222;2023-04-25T11:37:49;19.70;1.00
4054;DHT22;2042;47.956;9.222;2023-04-25T11:40:15;19.00;1.00
4054;DHT22;2042;47.956;9.222;2023-04-25T11:42:45;17.70;1.00
4054;DHT22;2042;47.956;9.222;2023-04-25T11:45:11;16.80;1.00
4054;DHT22;2042;47.956;9.222;2023-04-25T11:47:37;16.60;1.00
4054;DHT22;2042;47.956;9.222;2023-04-25T11:50:04;16.30;1.00
4054;DHT22;2042;47.956;9.222;2023-04-25T11:52:40;15.40;1.00
4054;DHT22;2042;47.956;9.222;2023-04-25T11:55:08;14.70;1.00
4054;DHT22;2042;47.956;9.222;2023-04-25T11:57:34;14.20;1.00
4054;DHT22;2042;47.956;9.222;2023-04-25T12:00:26;13.70;1.00
4054;DHT22;2042;47.956;9.222;2023-04-25T12:02:53;14.00;1.00
4054;DHT22;2042;47.956;9.222;2023-04-25T12:05:19;14.70;1.00
4054;DHT22;2042;47.956;9.222;2023-04-25T12:07:46;14.50;1.00
4054;DHT22;2042;47.956;9.222;2023-04-25T12:10:14;14.20;1.00
4054;DHT22;2042;47.956;9.222;2023-04-25T12:12:44;14.10;1.00
4054;DHT22;2042;47.956;9.222;2023-04-25T12:15:25;14.00;1.00
4054;DHT22;2042;47.956;9.222;2023-04-25T12:17:52;13.60;1.00
4054;DHT22;2042;47.956;9.222;2023-04-25T12:20:28;13.20;1.00
4054;DHT22;2042;47.956;9.222;2023-04-25T12:22:57;12.80;1.00
4054;DHT22;2042;47.956;9.222;2023-04-25T12:25:42;12.50;1.00
4054;DHT22;2042;47.956;9.222;2023-04-25T12:33:37;12.40;1.00
4054;DHT22;2042;47.956;9.222;2023-04-25T12:36:04;12.50;1.00
4054;DHT22;2042;47.956;9.222;2023-04-25T12:38:41;12.50;1.00
4054;DHT22;2042;47.956;9.222;2023-04-25T12:41:08;12.20;1.00
4054;DHT22;2042;47.956;9.222;2023-04-25T12:43:34;12.40;1.00
4054;DHT22;2042;47.956;9.222;2023-04-25T12:46:00;13.30;1.00
4054;DHT22;2042;47.956;9.222;2023-04-25T12:48:26;14.60;1.00
4054;DHT22;2042;47.956;9.222;2023-04-25T12:50:52;15.40;1.00
4054;DHT22;2042;47.956;9.222;2023-04-25T12:53:19;15.70;1.00
4054;DHT22;2042;47.956;9.222;2023-04-25T12:55:46;16.10;1.00
4054;DHT22;2042;47.956;9.222;2023-04-25T12:58:16;15.70;1.00
4054;DHT22;2042;47.956;9.222;2023-04-25T13:00:43;14.80;1.00
4054;DHT22;2042;47.956;9.222;2023-04-25T13:03:09;14.50;1.00
4054;DHT22;2042;47.956;9.222;2023-04-25T13:05:36;14.60;1.00
4054;DHT22;2042;47.956;9.222;2023-04-25T13:08:02;15.00;1.00
4054;DHT22;2042;47.956;9.222;2023-04-25T13:10:28;16.10;1.00
4054;DHT22;2042;47.956;9.222;2023-04-25T13:12:54;18.00;1.00
4054;DHT22;2042;47.956;9.222;2023-04-25T13:15:19;19.60;1.00
4054;DHT22;2042;47.956;9.222;2023-04-25T13:17:45;20.30;1.00
4054;DHT22;2042;47.956;9.222;2023-04-25T13:20:12;19.80;1.00
4054;DHT22;2042;47.956;9.222;2023-04-25T13:22:39;18.60;1.00
4054;DHT22;2042;47.956;9.222;2023-04-25T13:25:06;16.70;1.00
4054;DHT22;2042;47.956;9.222;2023-04-25T13:27:32;15.50;1.00
4054;DHT22;2042;47.956;9.222;2023-04-25T13:30:00;15.30;1.00
4054;DHT22;2042;47.956;9.222;2023-04-25T13:32:26;15.00;1.00
4054;DHT22;2042;47.956;9.222;2023-04-25T13:34:53;14.40;1.00
4054;DHT22;2042;47.956;9.222;2023-04-25T13:37:18;13.90;1.00
4054;DHT22;2042;47.956;9.222;2023-04-25T13:39:44;13.60;1.00
4054;DHT22;2042;47.956;9.222;2023-04-25T13:42:10;13.50;1.00
4054;DHT22;2042;47.956;9.222;2023-04-25T13:44:36;14.00;1.00
4054;DHT22;2042;47.956;9.222;2023-04-25T13:47:03;14.60;1.00
4054;DHT22;2042;47.956;9.222;2023-04-25T13:49:28;15.20;1.00
4054;DHT22;2042;47.956;9.222;2023-04-25T13:51:54;16.30;1.00
4054;DHT22;2042;47.956;9.222;2023-04-25T13:54:20;17.10;1.00
4054;DHT22;2042;47.956;9.222;2023-04-25T13:56:46;17.50;1.00
4054;DHT22;2042;47.956;9.222;2023-04-25T13:59:11;17.80;1.00
4054;DHT22;2042;47.956;9.222;2023-04-25T14:01:37;17.80;1.00
4054;DHT22;2042;47.956;9.222;2023-04-25T14:04:03;17.40;1.00
4054;DHT22;2042;47.956;9.222;2023-04-25T14:06:32;16.80;1.00
4054;DHT22;2042;47.956;9.222;2023-04-25T14:08:58;16.40;1.00
4054;DHT22;2042;47.956;9.222;2023-04-25T14:11:26;16.50;1.00
4054;DHT22;2042;47.956;9.222;2023-04-25T14:13:52;17.40;1.00
4054;DHT22;2042;47.956;9.222;2023-04-25T14:16:27;18.50;1.00
4054;DHT22;2042;47.956;9.222;2023-04-25T14:18:53;19.00;1.00
4054;DHT22;2042;47.956;9.222;2023-04-25T14:21:20;18.60;1.00
4054;DHT22;2042;47.956;9.222;2023-04-25T14:23:46;18.20;1.00
4054;DHT22;2042;47.956;9.222;2023-04-25T14:26:13;18.30;1.00
4054;DHT22;2042;47.956;9.222;2023-04-25T14:28:39;18.40;1.00
4054;DHT22;2042;47.956;9.222;2023-04-25T14:31:04;18.60;1.00
4054;DHT22;2042;47.956;9.222;2023-04-25T14:33:30;18.60;1.00
4054;DHT22;2042;47.956;9.222;2023-04-25T14:35:56;18.80;1.00
4054;DHT22;2042;47.956;9.222;2023-04-25T14:38:22;19.10;1.00
4054;DHT22;2042;47.956;9.222;2023-04-25T14:40:52;19.10;1.00
4054;DHT22;2042;47.956;9.222;2023-04-25T14:43:19;19.00;1.00
4054;DHT22;2042;47.956;9.222;2023-04-25T14:45:44;18.20;1.00
4054;DHT22;2042;47.956;9.222;2023-04-25T14:48:10;17.30;1.00
4054;DHT22;2042;47.956;9.222;2023-04-25T14:50:36;16.30;1.00
4054;DHT22;2042;47.956;9.222;2023-04-25T14:53:02;16.10;1.00
4054;DHT22;2042;47.956;9.222;2023-04-25T14:55:27;16.60;1.00
4054;DHT22;2042;47.956;9.222;2023-04-25T14:57:54;16.50;1.00
4054;DHT22;2042;47.956;9.222;2023-04-25T15:00:20;16.30;1.00
4054;DHT22;2042;47.956;9.222;2023-04-25T15:02:48;15.80;1.00
4054;DHT22;2042;47.956;9.222;2023-04-25T15:05:14;15.00;1.00
4054;DHT22;2042;47.956;9.222;2023-04-25T15:07:40;14.50;1.00
4054;DHT22;2042;47.956;9.222;2023-04-25T15:10:07;14.20;1.00
4054;DHT22;2042;47.956;9.222;2023-04-25T15:12:47;15.10;1.00
4054;DHT22;2042;47.956;9.222;2023-04-25T15:15:14;15.50;1.00
4054;DHT22;2042;47.956;9.222;2023-04-25T15:17:43;15.20;1.00
4054;DHT22;2042;47.956;9.222;2023-04-25T15:20:11;14.80;1.00
4054;DHT22;2042;47.956;9.222;2023-04-25T15:22:39;14.40;1.00
4054;DHT22;2042;47.956;9.222;2023-04-25T15:25:05;13.90;1.00
4054;DHT22;2042;47.956;9.222;2023-04-25T15:27:33;13.50;1.00
4054;DHT22;2042;47.956;9.222;2023-04-25T15:29:59;13.20;1.00
4054;DHT22;2042;47.956;9.222;2023-04-25T15:32:25;12.90;1.00
4054;DHT22;2042;47.956;9.222;2023-04-25T15:34:51;12.60;1.00
4054;DHT22;2042;47.956;9.222;2023-04-25T15:37:17;12.60;1.00
4054;DHT22;2042;47.956;9.222;2023-04-25T15:39:44;13.40;1.00
4054;DHT22;2042;47.956;9.222;2023-04-25T15:42:09;14.30;1.00
4054;DHT22;2042;47.956;9.222;2023-04-25T15:44:35;14.70;1.00
4054;DHT22;2042;47.956;9.222;2023-04-25T15:47:01;14.60;1.00
4054;DHT22;2042;47.956;9.222;2023-04-25T15:49:26;14.10;1.00
4054;DHT22;2042;47.956;9.222;2023-04-25T15:51:53;13.60;1.00
4054;DHT22;2042;47.956;9.222;2023-04-25T15:54:18;13.10;1.00
4054;DHT22;2042;47.956;9.222;2023-04-25T15:56:44;12.60;1.00
4054;DHT22;2042;47.956;9.222;2023-04-25T15:59:10;12.30;1.00
4054;DHT22;2042;47.956;9.222;2023-04-25T16:01:36;12.00;1.00
4054;DHT22;2042;47.956;9.222;2023-04-25T16:04:02;11.80;1.00
4054;DHT22;2042;47.956;9.222;2023-04-25T16:06:28;11.50;1.00
4054;DHT22;2042;47.956;9.222;2023-04-25T16:08:54;11.20;1.00
4054;DHT22;2042;47.956;9.222;2023-04-25T16:11:21;11.00;1.00
4054;DHT22;2042;47.956;9.222;2023-04-25T16:13:47;10.90;1.00
4054;DHT22;2042;47.956;9.222;2023-04-25T16:16:13;10.80;1.00
4054;DHT22;2042;47.956;9.222;2023-04-25T16:18:39;10.90;1.00
4054;DHT22;2042;47.956;9.222;2023-04-25T16:21:05;11.00;1.00
4054;DHT22;2042;47.956;9.222;2023-04-25T16:23:30;11.10;1.00
4054;DHT22;2042;47.956;9.222;2023-04-25T16:25:56;11.10;1.00
4054;DHT22;2042;47.956;9.222;2023-04-25T16:28:22;10.90;1.00
4054;DHT22;2042;47.956;9.222;2023-04-25T16:30:48;10.70;1.00
4054;DHT22;2042;47.956;9.222;2023-04-25T16:33:14;10.60;1.00
4054;DHT22;2042;47.956;9.222;2023-04-25T16:35:39;10.40;1.00
4054;DHT22;2042;47.956;9.222;2023-04-25T16:38:05;10.30;1.00
4054;DHT22;2042;47.956;9.222;2023-04-25T16:40:31;10.30;1.00
4054;DHT22;2042;47.956;9.222;2023-04-25T16:42:56;10.50;1.00
4054;DHT22;2042;47.956;9.222;2023-04-25T16:45:43;10.60;1.00
4054;DHT22;2042;47.956;9.222;2023-04-25T16:48:32;10.70;1.00
4054;DHT22;2042;47.956;9.222;2023-04-25T16:50:59;10.80;1.00
4054;DHT22;2042;47.956;9.222;2023-04-25T16:53:25;10.90;1.00
4054;DHT22;2042;47.956;9.222;2023-04-25T16:55:51;11.10;1.00
4054;DHT22;2042;47.956;9.222;2023-04-25T16:58:17;11.30;1.00
4054;DHT22;2042;47.956;9.222;2023-04-25T17:00:42;11.40;1.00
4054;DHT22;2042;47.956;9.222;2023-04-25T17:03:10;11.20;1.00
4054;DHT22;2042;47.956;9.222;2023-04-25T17:05:39;10.90;1.00
4054;DHT22;2042;47.956;9.222;2023-04-25T17:08:05;10.70;1.00
4054;DHT22;2042;47.956;9.222;2023-04-25T17:10:31;10.80;1.00
4054;DHT22;2042;47.956;9.222;2023-04-25T17:12:58;10.90;1.00
4054;DHT22;2042;47.956;9.222;2023-04-25T17:15:23;11.00;1.00
4054;DHT22;2042;47.956;9.222;2023-04-25T17:17:49;10.90;1.00
4054;DHT22;2042;47.956;9.222;2023-04-25T17:20:15;10.70;1.00
4054;DHT22;2042;47.956;9.222;2023-04-25T17:22:41;10.60;1.00
4054;DHT22;2042;47.956;9.222;2023-04-25T17:25:08;10.60;1.00
4054;DHT22;2042;47.956;9.222;2023-04-25T17:27:37;10.40;1.00
4054;DHT22;2042;47.956;9.222;2023-04-25T17:30:04;10.20;1.00
4054;DHT22;2042;47.956;9.222;2023-04-25T17:32:30;10.00;1.00
4054;DHT22;2042;47.956;9.222;2023-04-25T17:34:56;9.70;1.00
4054;DHT22;2042;47.956;9.222;2023-04-25T17:37:22;9.50;1.00
4054;DHT22;2042;47.956;9.222;2023-04-25T17:39:51;9.30;1.00